createdAt,value
2018-12-26T00:02:52.839Z,6.70
2018-12-26T00:05:21.307Z,4.28
2018-12-26T00:07:49.625Z,4.55
2018-12-26T00:10:17.926Z,7.00
2018-12-26T00:12:46.218Z,5.92
2018-12-26T00:15:14.543Z,5.12
2018-12-26T00:17:42.825Z,4.12
2018-12-26T00:20:11.129Z,6.58
2018-12-26T00:22:39.417Z,4.00
2018-12-26T00:25:07.735Z,4.45
2018-12-26T00:27:36.013Z,5.72
2018-12-26T00:32:58.898Z,8.13
2018-12-26T00:35:27.206Z,6.37
2018-12-26T00:37:55.488Z,5.70
2018-12-26T00:40:23.784Z,3.85
2018-12-26T00:42:52.073Z,4.45
2018-12-26T00:45:20.394Z,7.70
2018-12-26T00:47:48.678Z,3.50
2018-12-26T00:50:17.002Z,6.42
2018-12-26T00:52:45.309Z,7.28
2018-12-26T00:55:13.635Z,6.87
2018-12-26T00:57:41.913Z,4.33
2018-12-26T01:00:10.213Z,4.70
2018-12-26T01:02:38.499Z,3.87
2018-12-26T01:05:06.811Z,5.75
2018-12-26T01:07:35.105Z,5.03
2018-12-26T01:10:43.523Z,8.98
2018-12-26T01:13:11.835Z,7.10
2018-12-26T01:15:40.163Z,9.03
2018-12-26T01:18:08.460Z,8.35
2018-12-26T01:20:36.761Z,6.58
2018-12-26T01:23:05.047Z,5.65
2018-12-26T01:25:33.339Z,5.90
2018-12-26T01:28:01.635Z,8.03
2018-12-26T01:30:29.952Z,7.97
2018-12-26T01:32:58.253Z,10.58
2018-12-26T01:35:26.536Z,7.47
2018-12-26T01:37:54.841Z,8.20
2018-12-26T01:40:23.126Z,4.90
2018-12-26T01:42:51.428Z,10.18
2018-12-26T01:45:19.738Z,6.40
2018-12-26T01:47:48.040Z,8.75
2018-12-26T01:50:16.326Z,8.00
2018-12-26T01:52:44.625Z,8.43
2018-12-26T01:55:12.925Z,10.60
2018-12-26T01:57:41.234Z,6.65
2018-12-26T02:00:09.525Z,11.20
2018-12-26T02:02:37.843Z,6.42
2018-12-26T02:05:06.143Z,7.50
2018-12-26T02:07:34.449Z,8.73
2018-12-26T02:13:10.726Z,11.43
2018-12-26T02:15:39.021Z,9.28
2018-12-26T02:18:07.352Z,11.55
2018-12-26T02:20:35.663Z,10.95
2018-12-26T02:23:03.991Z,10.13
2018-12-26T02:25:32.290Z,12.90
2018-12-26T02:28:00.589Z,9.10
2018-12-26T02:30:28.879Z,11.55
2018-12-26T02:32:57.184Z,16.12
2018-12-26T02:35:25.474Z,8.83
2018-12-26T02:37:53.778Z,11.45
2018-12-26T02:40:22.078Z,11.00
2018-12-26T02:42:50.402Z,11.20
2018-12-26T02:45:18.700Z,11.53
2018-12-26T02:47:47.007Z,14.33
2018-12-26T02:50:15.298Z,11.97
2018-12-26T02:52:43.633Z,10.35
2018-12-26T02:55:11.931Z,11.90
2018-12-26T02:57:40.228Z,7.05
2018-12-26T03:03:22.088Z,11.20
2018-12-26T03:05:50.384Z,10.65
2018-12-26T03:08:18.691Z,10.35
2018-12-26T03:10:47.004Z,9.23
2018-12-26T03:13:15.327Z,7.83
2018-12-26T03:15:43.690Z,9.35
2018-12-26T03:18:11.987Z,9.65
2018-12-26T03:20:40.299Z,9.10
2018-12-26T03:23:08.601Z,8.75
2018-12-26T03:25:36.912Z,7.12
2018-12-26T03:28:05.220Z,9.58
2018-12-26T03:30:33.521Z,10.08
2018-12-26T03:33:01.848Z,12.35
2018-12-26T03:35:30.136Z,9.18
2018-12-26T03:37:58.454Z,14.55
2018-12-26T03:40:26.766Z,10.35
2018-12-26T03:42:55.058Z,10.68
2018-12-26T03:45:23.378Z,9.08
2018-12-26T03:47:51.678Z,9.43
2018-12-26T03:50:19.968Z,8.35
2018-12-26T03:52:48.266Z,11.03
2018-12-26T03:55:16.574Z,9.98
2018-12-26T03:57:44.896Z,14.63
2018-12-26T04:00:13.195Z,11.65
2018-12-26T04:02:41.507Z,9.90
2018-12-26T04:05:09.806Z,8.90
2018-12-26T04:07:38.098Z,8.28
2018-12-26T04:10:06.394Z,7.85
2018-12-26T04:12:34.712Z,11.08
2018-12-26T04:15:03.089Z,10.48
2018-12-26T04:17:31.385Z,11.60
2018-12-26T04:19:59.688Z,8.30
2018-12-26T04:22:27.978Z,9.15
2018-12-26T04:24:56.260Z,7.78
2018-12-26T04:27:24.571Z,7.42
2018-12-26T04:29:52.877Z,8.30
2018-12-26T04:32:21.168Z,10.75
2018-12-26T04:34:49.482Z,11.83
2018-12-26T04:37:17.777Z,10.53
2018-12-26T04:39:46.076Z,15.90
2018-12-26T04:42:14.372Z,10.58
2018-12-26T04:44:42.700Z,8.38
2018-12-26T04:47:11.004Z,7.72
2018-12-26T04:49:39.312Z,10.20
2018-12-26T04:52:07.598Z,6.55
2018-12-26T04:54:35.899Z,7.62
2018-12-26T04:57:04.193Z,9.53
2018-12-26T04:59:32.502Z,10.53
2018-12-26T05:02:00.809Z,7.00
2018-12-26T05:04:29.090Z,7.05
2018-12-26T05:06:57.417Z,9.35
2018-12-26T05:09:25.702Z,9.73
2018-12-26T05:11:53.997Z,8.65
2018-12-26T05:14:22.339Z,9.75
2018-12-26T05:16:50.615Z,9.90
2018-12-26T05:19:18.926Z,8.30
2018-12-26T05:21:47.221Z,8.58
2018-12-26T05:24:15.513Z,8.40
2018-12-26T05:26:43.837Z,7.53
2018-12-26T05:29:12.142Z,9.45
2018-12-26T05:31:40.467Z,9.00
2018-12-26T05:34:08.780Z,10.43
2018-12-26T05:36:37.093Z,15.03
2018-12-26T05:42:19.606Z,10.63
2018-12-26T05:44:47.935Z,12.10
2018-12-26T05:47:16.234Z,13.50
2018-12-26T05:49:44.551Z,10.88
2018-12-26T05:52:12.860Z,11.35
2018-12-26T05:54:41.154Z,9.65
2018-12-26T05:57:09.482Z,13.08
2018-12-26T05:59:37.772Z,9.80
2018-12-26T06:02:06.076Z,16.12
2018-12-26T06:04:34.370Z,10.90
2018-12-26T06:07:02.669Z,8.15
2018-12-26T06:09:30.964Z,10.82
2018-12-26T06:11:59.275Z,14.18
2018-12-26T06:14:27.587Z,9.98
2018-12-26T06:16:55.896Z,16.52
2018-12-26T06:19:24.193Z,13.00
2018-12-26T06:21:52.532Z,7.67
2018-12-26T06:24:20.824Z,12.50
2018-12-26T06:26:49.120Z,15.98
2018-12-26T06:29:17.528Z,12.95
2018-12-26T06:31:45.822Z,16.23
2018-12-26T06:34:14.126Z,13.60
2018-12-26T06:36:42.443Z,12.65
2018-12-26T06:39:10.748Z,16.97
2018-12-26T06:41:39.039Z,13.30
2018-12-26T06:44:07.350Z,13.15
2018-12-26T06:46:35.674Z,13.18
2018-12-26T06:49:03.984Z,16.12
2018-12-26T06:51:32.297Z,14.28
2018-12-26T06:54:00.602Z,13.95
2018-12-26T06:56:28.895Z,11.85
2018-12-26T06:58:57.198Z,13.62
2018-12-26T07:01:25.495Z,16.30
2018-12-26T07:03:53.828Z,12.88
2018-12-26T07:06:22.121Z,15.32
2018-12-26T07:08:50.491Z,13.93
2018-12-26T07:11:18.746Z,12.28
2018-12-26T07:13:47.061Z,13.98
2018-12-26T07:16:15.373Z,11.20
2018-12-26T07:18:43.667Z,13.32
2018-12-26T07:21:11.971Z,12.90
2018-12-26T07:23:40.264Z,13.28
2018-12-26T07:26:08.571Z,14.05
2018-12-26T07:28:36.893Z,12.93
2018-12-26T07:31:05.199Z,16.07
2018-12-26T07:33:33.519Z,8.68
2018-12-26T07:36:01.848Z,11.12
2018-12-26T07:38:30.136Z,9.28
2018-12-26T07:40:58.440Z,13.78
2018-12-26T07:43:26.731Z,10.08
2018-12-26T07:45:55.035Z,11.35
2018-12-26T07:48:23.342Z,9.35
2018-12-26T07:50:51.658Z,9.18
2018-12-26T07:53:19.964Z,11.35
2018-12-26T07:55:48.288Z,12.35
2018-12-26T07:58:17.681Z,10.90
2018-12-26T08:00:46.618Z,11.22
2018-12-26T08:03:14.907Z,10.93
2018-12-26T08:05:43.210Z,7.70
2018-12-26T08:08:11.502Z,10.23
2018-12-26T08:10:39.813Z,11.40
2018-12-26T08:13:08.101Z,9.38
2018-12-26T08:15:36.420Z,10.53
2018-12-26T08:18:04.700Z,11.33
2018-12-26T08:20:33.050Z,8.58
2018-12-26T08:23:01.371Z,16.00
2018-12-26T08:25:29.674Z,10.78
2018-12-26T08:27:57.991Z,13.22
2018-12-26T08:30:26.320Z,11.25
2018-12-26T08:32:54.633Z,10.72
2018-12-26T08:35:22.927Z,8.45
2018-12-26T08:37:51.252Z,9.93
2018-12-26T08:40:19.544Z,10.08
2018-12-26T08:42:47.871Z,8.15
2018-12-26T08:45:16.167Z,8.83
2018-12-26T08:47:44.465Z,6.60
2018-12-26T08:50:12.750Z,6.87
2018-12-26T08:52:41.073Z,5.67
2018-12-26T08:55:09.386Z,10.82
2018-12-26T08:57:37.690Z,8.18
2018-12-26T09:03:20.244Z,10.28
2018-12-26T09:05:48.536Z,8.33
2018-12-26T09:08:16.840Z,11.73
2018-12-26T09:10:45.151Z,9.45
2018-12-26T09:13:13.450Z,7.20
2018-12-26T09:15:41.735Z,7.35
2018-12-26T09:18:10.037Z,8.70
2018-12-26T09:20:38.349Z,7.90
2018-12-26T09:23:06.655Z,9.38
2018-12-26T09:25:54.395Z,7.40
2018-12-26T09:28:22.703Z,10.08
2018-12-26T09:30:50.994Z,9.50
2018-12-26T09:33:19.315Z,9.43
2018-12-26T09:35:47.597Z,6.37
2018-12-26T09:38:15.905Z,8.55
2018-12-26T09:40:44.199Z,10.20
2018-12-26T09:43:12.523Z,9.43
2018-12-26T09:45:40.829Z,10.68
2018-12-26T09:48:09.160Z,10.35
2018-12-26T09:50:37.480Z,9.80
2018-12-26T09:53:05.803Z,6.75
2018-12-26T09:55:34.088Z,6.80
2018-12-26T09:58:02.402Z,10.58
2018-12-26T10:00:30.687Z,5.25
2018-12-26T10:02:58.984Z,6.42
2018-12-26T10:05:27.276Z,7.00
2018-12-26T10:07:55.633Z,8.20
2018-12-26T10:10:23.928Z,9.63
2018-12-26T10:12:52.231Z,6.78
2018-12-26T10:15:20.525Z,13.43
2018-12-26T10:17:48.857Z,12.63
2018-12-26T10:20:17.147Z,6.95
2018-12-26T10:22:45.468Z,8.20
2018-12-26T10:25:13.777Z,6.65
2018-12-26T10:27:42.111Z,8.68
2018-12-26T10:30:10.396Z,5.87
2018-12-26T10:32:38.708Z,7.00
2018-12-26T10:38:20.768Z,8.58
2018-12-26T10:40:49.059Z,6.90
2018-12-26T10:43:17.358Z,6.10
2018-12-26T10:45:45.644Z,6.95
2018-12-26T10:48:13.961Z,5.35
2018-12-26T10:50:42.246Z,6.08
2018-12-26T10:53:10.580Z,6.97
2018-12-26T10:55:38.891Z,5.25
2018-12-26T10:58:07.189Z,9.88
2018-12-26T11:00:35.497Z,6.65
2018-12-26T11:03:03.807Z,6.50
2018-12-26T11:08:20.986Z,5.70
2018-12-26T11:10:49.265Z,9.83
2018-12-26T11:13:17.575Z,74.32
2018-12-26T11:15:45.892Z,19.75
2018-12-26T11:18:14.186Z,15.78
2018-12-26T11:20:42.490Z,16.07
2018-12-26T11:23:10.792Z,26.30
2018-12-26T11:25:39.128Z,16.23
2018-12-26T11:28:07.423Z,15.40
2018-12-26T11:30:35.747Z,474.92
2018-12-26T11:33:11.090Z,355.07
2018-12-26T11:35:39.432Z,218.73
2018-12-26T11:38:07.739Z,188.90
2018-12-26T11:40:36.068Z,119.62
2018-12-26T11:43:04.373Z,105.85
2018-12-26T11:45:32.714Z,88.15
2018-12-26T11:48:01.008Z,63.52
2018-12-26T11:50:29.329Z,71.30
2018-12-26T11:52:57.628Z,55.23
2018-12-26T11:55:25.943Z,48.50
2018-12-26T11:57:54.266Z,14.85
2018-12-26T12:00:22.567Z,9.30
2018-12-26T12:02:50.860Z,8.53
2018-12-26T12:05:19.161Z,8.10
2018-12-26T12:07:47.472Z,7.33
2018-12-26T12:10:15.772Z,6.03
2018-12-26T12:12:44.191Z,5.78
2018-12-26T12:15:12.479Z,6.17
2018-12-26T12:17:40.783Z,7.03
2018-12-26T12:20:49.198Z,5.58
2018-12-26T12:23:17.505Z,6.15
2018-12-26T12:25:45.808Z,3.83
2018-12-26T12:28:14.094Z,5.58
2018-12-26T12:30:42.388Z,6.37
2018-12-26T12:33:10.718Z,3.33
2018-12-26T12:35:39.012Z,3.58
2018-12-26T12:38:07.313Z,5.30
2018-12-26T12:40:35.600Z,6.35
2018-12-26T12:43:03.903Z,6.05
2018-12-26T12:45:32.194Z,4.22
2018-12-26T12:48:00.492Z,4.55
2018-12-26T12:50:28.783Z,6.35
2018-12-26T12:52:57.095Z,7.95
2018-12-26T12:55:25.407Z,4.90
2018-12-26T12:57:53.711Z,5.12
2018-12-26T13:00:22.028Z,5.72
2018-12-26T13:02:50.332Z,6.05
2018-12-26T13:05:18.653Z,6.62
2018-12-26T13:07:46.948Z,5.15
2018-12-26T13:10:15.240Z,7.22
2018-12-26T13:12:43.563Z,8.18
2018-12-26T13:15:11.850Z,7.08
2018-12-26T13:17:40.229Z,6.70
2018-12-26T13:23:22.612Z,9.73
2018-12-26T13:25:50.922Z,6.08
2018-12-26T13:28:19.228Z,8.40
2018-12-26T13:31:06.952Z,8.28
2018-12-26T13:33:35.256Z,7.25
2018-12-26T13:36:03.551Z,9.85
2018-12-26T13:38:31.880Z,9.30
2018-12-26T13:41:00.206Z,11.65
2018-12-26T13:43:28.515Z,8.33
2018-12-26T13:45:56.810Z,9.80
2018-12-26T13:48:25.122Z,10.50
2018-12-26T13:50:53.452Z,14.00
2018-12-26T13:53:21.787Z,14.03
2018-12-26T13:55:50.085Z,15.83
2018-12-26T13:58:30.441Z,11.10
2018-12-26T14:00:58.749Z,20.05
2018-12-26T14:03:27.044Z,11.70
2018-12-26T14:05:55.358Z,11.40
2018-12-26T14:08:23.660Z,13.72
2018-12-26T14:10:51.999Z,17.40
2018-12-26T14:13:20.295Z,14.15
2018-12-26T14:15:48.634Z,19.07
2018-12-26T14:18:16.949Z,17.73
2018-12-26T14:20:45.282Z,14.90
2018-12-26T14:23:13.580Z,13.95
2018-12-26T14:25:41.916Z,17.50
2018-12-26T14:28:10.221Z,19.42
2018-12-26T14:30:38.554Z,15.93
2018-12-26T14:33:06.862Z,18.85
2018-12-26T14:35:35.195Z,15.90
2018-12-26T14:38:03.494Z,15.08
2018-12-26T14:40:31.833Z,18.10
2018-12-26T14:43:00.140Z,11.80
2018-12-26T14:45:28.442Z,18.00
2018-12-26T14:47:56.736Z,12.70
2018-12-26T14:50:25.060Z,16.75
2018-12-26T14:52:53.377Z,16.95
2018-12-26T14:55:21.712Z,12.45
2018-12-26T14:57:50.007Z,18.60
2018-12-26T15:00:20.063Z,11.63
2018-12-26T15:02:48.366Z,11.93
2018-12-26T15:05:16.686Z,14.05
2018-12-26T15:07:44.991Z,13.78
2018-12-26T15:10:13.292Z,14.25
2018-12-26T15:12:41.606Z,12.78
2018-12-26T15:15:10.104Z,11.73
2018-12-26T15:17:38.410Z,8.35
2018-12-26T15:23:21.097Z,9.18
2018-12-26T15:25:49.391Z,17.27
2018-12-26T15:28:17.700Z,12.70
2018-12-26T15:30:46.001Z,13.08
2018-12-26T15:33:14.332Z,12.23
2018-12-26T15:35:42.632Z,10.95
2018-12-26T15:38:10.939Z,13.98
2018-12-26T15:40:39.261Z,16.87
2018-12-26T15:43:07.580Z,13.65
2018-12-26T15:45:35.879Z,12.07
2018-12-26T15:48:04.193Z,16.05
2018-12-26T15:50:32.494Z,12.35
2018-12-26T15:53:00.803Z,15.53
2018-12-26T15:55:29.126Z,13.32
2018-12-26T15:57:57.458Z,13.15
2018-12-26T16:00:25.758Z,13.50
2018-12-26T16:02:54.097Z,15.88
2018-12-26T16:05:22.394Z,15.78
2018-12-26T16:07:50.711Z,12.68
2018-12-26T16:10:19.008Z,13.90
2018-12-26T16:12:47.342Z,16.35
2018-12-26T16:15:15.637Z,11.43
2018-12-26T16:17:43.955Z,15.95
2018-12-26T16:20:12.252Z,13.25
2018-12-26T16:22:40.559Z,17.27
2018-12-26T16:28:09.865Z,15.32
2018-12-26T16:30:45.956Z,14.20
2018-12-26T16:33:08.223Z,13.62
2018-12-26T16:35:36.547Z,15.40
2018-12-26T16:38:04.878Z,16.07
2018-12-26T16:40:33.182Z,14.98
2018-12-26T16:43:01.534Z,11.85
2018-12-26T16:45:29.858Z,17.02
2018-12-26T16:47:58.160Z,20.57
2018-12-26T16:50:27.086Z,14.43
2018-12-26T16:52:56.491Z,15.40
2018-12-26T16:55:24.804Z,16.73
2018-12-26T16:57:53.100Z,20.08
2018-12-26T17:00:21.415Z,18.23
2018-12-26T17:02:49.710Z,18.55
2018-12-26T17:05:18.019Z,21.52
2018-12-26T17:07:46.326Z,11.33
2018-12-26T17:10:54.774Z,23.02
2018-12-26T17:13:23.073Z,20.43
2018-12-26T17:15:51.391Z,17.57
2018-12-26T17:18:19.687Z,19.82
2018-12-26T17:20:48.021Z,16.37
2018-12-26T17:23:16.322Z,21.25
2018-12-26T17:25:44.653Z,21.48
2018-12-26T17:28:12.960Z,17.95
2018-12-26T17:30:41.267Z,17.42
2018-12-26T17:33:09.583Z,14.38
2018-12-26T17:35:37.895Z,21.90
2018-12-26T17:38:06.189Z,14.15
2018-12-26T17:40:34.499Z,20.05
2018-12-26T17:43:02.805Z,16.40
2018-12-26T17:45:32.324Z,20.30
2018-12-26T17:48:01.157Z,19.27
2018-12-26T17:50:49.363Z,13.50
2018-12-26T18:00:11.687Z,19.65
2018-12-26T18:02:39.987Z,16.73
2018-12-26T18:05:08.311Z,10.43
2018-12-26T18:07:36.648Z,13.95
2018-12-26T18:13:05.616Z,12.30
2018-12-26T18:15:33.917Z,9.95
2018-12-26T18:18:02.239Z,12.53
2018-12-26T18:20:30.614Z,13.15
2018-12-26T18:22:58.929Z,11.97
2018-12-26T18:25:27.245Z,11.05
2018-12-26T18:27:55.553Z,9.53
2018-12-26T18:30:23.844Z,8.30
2018-12-26T18:32:52.175Z,9.80
2018-12-26T18:35:20.468Z,8.78
2018-12-26T18:37:48.805Z,10.90
2018-12-26T18:40:17.106Z,10.50
2018-12-26T18:42:45.419Z,10.08
2018-12-26T18:45:13.737Z,10.90
2018-12-26T18:47:42.047Z,11.22
2018-12-26T18:50:10.481Z,10.45
2018-12-26T18:52:38.793Z,11.63
2018-12-26T18:55:07.165Z,13.68
2018-12-26T18:57:35.473Z,13.70
2018-12-26T19:03:17.230Z,13.48
2018-12-26T19:05:45.531Z,12.70
2018-12-26T19:08:13.844Z,11.83
2018-12-26T19:10:42.146Z,14.85
2018-12-26T19:13:10.465Z,11.45
2018-12-26T19:15:38.788Z,14.43
2018-12-26T19:18:07.093Z,12.30
2018-12-26T19:20:35.412Z,10.78
2018-12-26T19:23:03.727Z,12.88
2018-12-26T19:25:32.031Z,12.18
2018-12-26T19:28:00.361Z,11.30
2018-12-26T19:30:28.664Z,10.40
2018-12-26T19:32:56.971Z,13.45
2018-12-26T19:35:25.268Z,11.97
2018-12-26T19:37:53.565Z,14.73
2018-12-26T19:40:21.885Z,13.38
2018-12-26T19:42:50.184Z,11.35
2018-12-26T19:45:18.568Z,10.32
2018-12-26T19:47:46.812Z,17.35
2018-12-26T19:50:15.125Z,13.40
2018-12-26T19:52:43.444Z,15.80
2018-12-26T19:55:11.755Z,11.70
2018-12-26T19:57:40.051Z,14.70
2018-12-26T20:00:48.471Z,12.10
2018-12-26T20:03:16.766Z,13.80
2018-12-26T20:05:45.063Z,9.35
2018-12-26T20:08:13.353Z,7.03
2018-12-26T20:10:41.664Z,12.37
2018-12-26T20:13:09.959Z,11.25
2018-12-26T20:15:38.268Z,14.23
2018-12-26T20:18:06.575Z,9.43
2018-12-26T20:20:34.875Z,9.33
2018-12-26T20:23:03.177Z,13.30
2018-12-26T20:25:31.485Z,10.20
2018-12-26T20:27:59.789Z,8.13
2018-12-26T20:30:28.100Z,9.55
2018-12-26T20:32:56.390Z,12.37
2018-12-26T20:35:24.703Z,12.47
2018-12-26T20:37:52.990Z,10.23
2018-12-26T20:40:21.297Z,11.53
2018-12-26T20:42:49.599Z,11.95
2018-12-26T20:45:17.902Z,11.20
2018-12-26T20:47:46.194Z,12.05
2018-12-26T20:50:14.495Z,7.45
2018-12-26T20:52:42.777Z,7.92
2018-12-26T20:55:11.084Z,9.15
2018-12-26T20:57:39.386Z,13.50
2018-12-26T21:00:47.829Z,11.60
2018-12-26T21:03:16.146Z,15.70
2018-12-26T21:05:44.454Z,10.25
2018-12-26T21:08:12.765Z,11.10
2018-12-26T21:10:41.080Z,10.30
2018-12-26T21:13:09.370Z,8.23
2018-12-26T21:15:37.679Z,10.40
2018-12-26T21:18:05.997Z,11.75
2018-12-26T21:20:34.301Z,12.03
2018-12-26T21:23:02.595Z,13.10
2018-12-26T21:25:30.908Z,10.23
2018-12-26T21:27:59.197Z,17.50
2018-12-26T21:30:27.507Z,13.88
2018-12-26T21:32:55.900Z,11.30
2018-12-26T21:35:24.208Z,12.55
2018-12-26T21:37:52.495Z,8.33
2018-12-26T21:40:20.889Z,11.97
2018-12-26T21:42:49.176Z,9.33
2018-12-26T21:45:17.485Z,14.03
2018-12-26T21:47:45.774Z,16.17
2018-12-26T21:50:14.079Z,14.47
2018-12-26T21:52:42.397Z,14.15
2018-12-26T21:55:10.714Z,12.80
2018-12-26T21:57:39.005Z,13.05
2018-12-26T22:00:47.453Z,12.93
2018-12-26T22:03:15.752Z,11.00
2018-12-26T22:05:44.056Z,14.73
2018-12-26T22:08:12.374Z,13.80
2018-12-26T22:10:40.718Z,14.98
2018-12-26T22:13:09.017Z,14.23
2018-12-26T22:15:37.307Z,9.05
2018-12-26T22:18:05.616Z,14.47
2018-12-26T22:20:33.916Z,10.18
2018-12-26T22:23:02.226Z,14.30
2018-12-26T22:25:30.524Z,13.55
2018-12-26T22:27:58.836Z,12.07
2018-12-26T22:30:27.152Z,13.88
2018-12-26T22:32:55.469Z,12.20
2018-12-26T22:35:23.758Z,15.20
2018-12-26T22:37:52.091Z,15.83
2018-12-26T22:40:20.379Z,12.88
2018-12-26T22:42:48.691Z,14.73
2018-12-26T22:45:16.983Z,17.80
2018-12-26T22:47:45.298Z,10.00
2018-12-26T22:50:13.601Z,15.05
2018-12-26T22:52:41.905Z,12.53
2018-12-26T22:55:10.203Z,15.65
2018-12-26T22:57:38.522Z,13.48
2018-12-26T23:03:07.940Z,16.40
2018-12-26T23:05:36.255Z,10.85
2018-12-26T23:08:04.559Z,15.88
2018-12-26T23:10:32.861Z,13.93
2018-12-26T23:13:01.185Z,15.20
2018-12-26T23:15:29.479Z,13.93
2018-12-26T23:17:57.785Z,15.80
2018-12-26T23:20:26.083Z,13.78
2018-12-26T23:22:54.397Z,13.18
2018-12-26T23:25:22.693Z,16.62
2018-12-26T23:27:51.020Z,19.77
2018-12-26T23:30:19.312Z,14.28
2018-12-26T23:32:47.601Z,24.98
2018-12-26T23:35:15.908Z,15.15
2018-12-26T23:37:44.198Z,18.10
2018-12-26T23:40:12.530Z,18.98
2018-12-26T23:42:40.823Z,21.95
2018-12-26T23:45:09.142Z,16.48
2018-12-26T23:47:37.435Z,14.98
2018-12-26T23:50:05.745Z,17.40
2018-12-26T23:52:34.212Z,19.48
2018-12-26T23:55:02.519Z,15.65
2018-12-26T23:57:30.818Z,14.83
2018-12-26T23:59:59.137Z,15.40
